sensor_id;sensor_type;location;lat;lon;timestamp;pressure;altitude;pressure_sealevel;temperature
58102;BMP280;52034;51.926;6.320;2023-03-23T00:00:22;100178.03;;;11.87
58102;BMP280;52034;51.926;6.320;2023-03-23T00:01:22;100183.59;;;11.85
58102;BMP280;52034;51.926;6.320;2023-03-23T00:02:29;100182.22;;;11.86
58102;BMP280;52034;51.926;6.320;2023-03-23T00:03:29;100178.03;;;11.87
58102;BMP280;52034;51.926;6.320;2023-03-23T00:04:32;100176.53;;;11.84
58102;BMP280;52034;51.926;6.320;2023-03-23T00:05:32;100168.78;;;11.83
58102;BMP280;52034;51.926;6.320;2023-03-23T00:06:32;100175.16;;;11.85
58102;BMP280;52034;51.926;6.320;2023-03-23T00:07:35;100168.09;;;11.84
58102;BMP280;52034;51.926;6.320;2023-03-23T00:08:38;100178.03;;;11.87
58102;BMP280;52034;51.926;6.320;2023-03-23T00:09:44;100179.44;;;11.86
58102;BMP280;52034;51.926;6.320;2023-03-23T00:10:48;100194.22;;;11.89
58102;BMP280;52034;51.926;6.320;2023-03-23T00:11:48;100182.91;;;11.85
58102;BMP280;52034;51.926;6.320;2023-03-23T00:12:48;100192.09;;;11.87
58102;BMP280;52034;51.926;6.320;2023-03-23T00:13:50;100178.63;;;11.84
58102;BMP280;52034;51.926;6.320;2023-03-23T00:14:51;100177.22;;;11.83
58102;BMP280;52034;51.926;6.320;2023-03-23T00:15:54;100182.19;;;11.84
58102;BMP280;52034;51.926;6.320;2023-03-23T00:16:54;100184.31;;;11.86
58102;BMP280;52034;51.926;6.320;2023-03-23T00:17:55;100180.09;;;11.85
58102;BMP280;52034;51.926;6.320;2023-03-23T00:19:04;100172.41;;;11.87
58102;BMP280;52034;51.926;6.320;2023-03-23T00:20:06;100174.56;;;11.91
58102;BMP280;52034;51.926;6.320;2023-03-23T00:21:07;100156.91;;;11.86
58102;BMP280;52034;51.926;6.320;2023-03-23T00:22:07;100154.81;;;11.87
58102;BMP280;52034;51.926;6.320;2023-03-23T00:23:07;100144.84;;;11.82
58102;BMP280;52034;51.926;6.320;2023-03-23T00:24:16;100147.22;;;11.93
58102;BMP280;52034;51.926;6.320;2023-03-23T00:25:17;100151.38;;;11.90
58102;BMP280;52034;51.926;6.320;2023-03-23T00:26:18;100149.91;;;11.87
58102;BMP280;52034;51.926;6.320;2023-03-23T00:27:18;100162.03;;;11.96
58102;BMP280;52034;51.926;6.320;2023-03-23T00:28:22;100154.22;;;11.92
58102;BMP280;52034;51.926;6.320;2023-03-23T00:29:25;100158.53;;;11.97
58102;BMP280;52034;51.926;6.320;2023-03-23T00:30:26;100153.66;;;11.98
58102;BMP280;52034;51.926;6.320;2023-03-23T00:31:26;100161.28;;;11.93
58102;BMP280;52034;51.926;6.320;2023-03-23T00:32:35;100174.00;;;11.96
58102;BMP280;52034;51.926;6.320;2023-03-23T00:33:37;100171.88;;;11.95
58102;BMP280;52034;51.926;6.320;2023-03-23T00:34:39;100169.72;;;11.95
58102;BMP280;52034;51.926;6.320;2023-03-23T00:35:40;100166.25;;;11.95
58102;BMP280;52034;51.926;6.320;2023-03-23T00:36:40;100165.44;;;11.90
58102;BMP280;52034;51.926;6.320;2023-03-23T00:37:44;100160.56;;;11.93
58102;BMP280;52034;51.926;6.320;2023-03-23T00:38:44;100154.19;;;11.90
58102;BMP280;52034;51.926;6.320;2023-03-23T00:39:47;100155.66;;;11.95
58102;BMP280;52034;51.926;6.320;2023-03-23T00:41:12;100148.59;;;11.92
58102;BMP280;52034;51.926;6.320;2023-03-23T00:42:15;100148.69;;;11.96
58102;BMP280;52034;51.926;6.320;2023-03-23T00:43:18;100146.56;;;11.97
58102;BMP280;52034;51.926;6.320;2023-03-23T00:44:19;100151.41;;;11.92
58102;BMP280;52034;51.926;6.320;2023-03-23T00:45:23;100161.28;;;11.93
58102;BMP280;52034;51.926;6.320;2023-03-23T00:46:24;100179.66;;;11.98
58102;BMP280;52034;51.926;6.320;2023-03-23T00:47:24;100181.09;;;11.99
58102;BMP280;52034;51.926;6.320;2023-03-23T00:48:25;100181.09;;;11.99
58102;BMP280;52034;51.926;6.320;2023-03-23T00:49:26;100178.91;;;11.96
58102;BMP280;52034;51.926;6.320;2023-03-23T00:50:27;100186.78;;;12.01
58102;BMP280;52034;51.926;6.320;2023-03-23T00:51:27;100175.50;;;11.99
58102;BMP280;52034;51.926;6.320;2023-03-23T00:52:28;100184.63;;;12.00
58102;BMP280;52034;51.926;6.320;2023-03-23T00:53:29;100176.31;;;12.06
58102;BMP280;52034;51.926;6.320;2023-03-23T00:54:29;100177.03;;;12.06
58102;BMP280;52034;51.926;6.320;2023-03-23T00:55:30;100167.13;;;12.03
58102;BMP280;52034;51.926;6.320;2023-03-23T00:56:30;100174.16;;;12.04
58102;BMP280;52034;51.926;6.320;2023-03-23T00:57:31;100166.34;;;12.01
58102;BMP280;52034;51.926;6.320;2023-03-23T00:58:31;100173.44;;;12.02
58102;BMP280;52034;51.926;6.320;2023-03-23T00:59:32;100172.06;;;12.05
58102;BMP280;52034;51.926;6.320;2023-03-23T01:00:33;100178.47;;;12.07
58102;BMP280;52034;51.926;6.320;2023-03-23T01:01:34;100161.59;;;12.07
58102;BMP280;52034;51.926;6.320;2023-03-23T01:02:34;100163.72;;;12.09
58102;BMP280;52034;51.926;6.320;2023-03-23T01:03:37;100163.00;;;12.08
58102;BMP280;52034;51.926;6.320;2023-03-23T01:04:38;100158.09;;;12.09
58102;BMP280;52034;51.926;6.320;2023-03-23T01:05:39;100149.56;;;12.05
58102;BMP280;52034;51.926;6.320;2023-03-23T01:06:43;100157.38;;;12.08
58102;BMP280;52034;51.926;6.320;2023-03-23T01:07:44;100158.78;;;12.07
58102;BMP280;52034;51.926;6.320;2023-03-23T01:08:45;100154.44;;;12.02
58102;BMP280;52034;51.926;6.320;2023-03-23T01:09:46;100148.19;;;12.06
58102;BMP280;52034;51.926;6.320;2023-03-23T01:10:47;100147.41;;;12.03
58102;BMP280;52034;51.926;6.320;2023-03-23T01:11:49;100158.81;;;12.09
58102;BMP280;52034;51.926;6.320;2023-03-23T01:12:50;100155.19;;;12.05
58102;BMP280;52034;51.926;6.320;2023-03-23T01:13:51;100148.91;;;12.06
58102;BMP280;52034;51.926;6.320;2023-03-23T01:14:53;100155.91;;;12.05
58102;BMP280;52034;51.926;6.320;2023-03-23T01:15:54;100143.19;;;12.02
58102;BMP280;52034;51.926;6.320;2023-03-23T01:16:54;100143.34;;;12.10
58102;BMP280;52034;51.926;6.320;2023-03-23T01:17:56;100144.69;;;12.07
58102;BMP280;52034;51.926;6.320;2023-03-23T01:18:56;100148.97;;;12.10
58102;BMP280;52034;51.926;6.320;2023-03-23T01:19:57;100145.44;;;12.10
58102;BMP280;52034;51.926;6.320;2023-03-23T01:21:04;100139.13;;;12.11
58102;BMP280;52034;51.926;6.320;2023-03-23T01:22:05;100139.88;;;12.12
58102;BMP280;52034;51.926;6.320;2023-03-23T01:23:05;100141.94;;;12.11
58102;BMP280;52034;51.926;6.320;2023-03-23T01:24:06;100141.94;;;12.11
58102;BMP280;52034;51.926;6.320;2023-03-23T01:25:08;100124.34;;;12.09
58102;BMP280;52034;51.926;6.320;2023-03-23T01:26:19;100125.78;;;12.12
58102;BMP280;52034;51.926;6.320;2023-03-23T01:27:20;100130.63;;;12.07
58102;BMP280;52034;51.926;6.320;2023-03-23T01:28:20;100139.88;;;12.12
58102;BMP280;52034;51.926;6.320;2023-03-23T01:29:20;100146.91;;;12.13
58102;BMP280;52034;51.926;6.320;2023-03-23T01:30:21;100141.16;;;12.07
58102;BMP280;52034;51.926;6.320;2023-03-23T01:31:23;100143.44;;;12.14
58102;BMP280;52034;51.926;6.320;2023-03-23T01:32:24;100140.56;;;12.12
58102;BMP280;52034;51.926;6.320;2023-03-23T01:33:25;100139.88;;;12.12
58102;BMP280;52034;51.926;6.320;2023-03-23T01:34:25;100141.91;;;12.09
58102;BMP280;52034;51.926;6.320;2023-03-23T01:35:25;100142.00;;;12.13
58102;BMP280;52034;51.926;6.320;2023-03-23T01:36:28;100150.47;;;12.15
58102;BMP280;52034;51.926;6.320;2023-03-23T01:37:31;100154.03;;;12.16
58102;BMP280;52034;51.926;6.320;2023-03-23T01:38:32;100167.38;;;12.15
58102;BMP280;52034;51.926;6.320;2023-03-23T01:39:35;100173.00;;;12.15
58102;BMP280;52034;51.926;6.320;2023-03-23T01:40:35;100168.00;;;12.12
58102;BMP280;52034;51.926;6.320;2023-03-23T01:41:35;100170.84;;;12.14
58102;BMP280;52034;51.926;6.320;2023-03-23T01:42:45;100163.75;;;12.11
58102;BMP280;52034;51.926;6.320;2023-03-23T01:43:57;100151.16;;;12.14
58102;BMP280;52034;51.926;6.320;2023-03-23T01:46:21;100120.09;;;12.10
58102;BMP280;52034;51.926;6.320;2023-03-23T01:47:24;100091.84;;;12.04
58102;BMP280;52034;51.926;6.320;2023-03-23T01:48:29;100101.78;;;12.07
58102;BMP280;52034;51.926;6.320;2023-03-23T01:49:34;100098.19;;;12.02
58102;BMP280;52034;51.926;6.320;2023-03-23T01:50:45;100096.13;;;12.05
58102;BMP280;52034;51.926;6.320;2023-03-23T01:51:54;100096.81;;;12.05
58102;BMP280;52034;51.926;6.320;2023-03-23T01:52:59;100074.22;;;11.99
58102;BMP280;52034;51.926;6.320;2023-03-23T01:54:02;100053.88;;;12.03
58102;BMP280;52034;51.926;6.320;2023-03-23T01:55:04;100048.84;;;11.97
58102;BMP280;52034;51.926;6.320;2023-03-23T01:56:06;100047.50;;;12.00
58102;BMP280;52034;51.926;6.320;2023-03-23T01:57:15;100058.03;;;12.00
58102;BMP280;52034;51.926;6.320;2023-03-23T01:58:23;100048.06;;;11.93
58102;BMP280;52034;51.926;6.320;2023-03-23T01:59:27;100049.44;;;11.92
58102;BMP280;52034;51.926;6.320;2023-03-23T02:00:49;100050.06;;;11.88
58102;BMP280;52034;51.926;6.320;2023-03-23T02:01:50;100043.03;;;11.87
58102;BMP280;52034;51.926;6.320;2023-03-23T02:02:54;100054.34;;;11.91
58102;BMP280;52034;51.926;6.320;2023-03-23T02:03:56;100041.63;;;11.88
58102;BMP280;52034;51.926;6.320;2023-03-23T02:04:59;100052.25;;;11.92
58102;BMP280;52034;51.926;6.320;2023-03-23T02:06:04;100047.31;;;11.90
58102;BMP280;52034;51.926;6.320;2023-03-23T02:07:26;100047.31;;;11.90
58102;BMP280;52034;51.926;6.320;2023-03-23T02:08:31;100047.25;;;11.88
58102;BMP280;52034;51.926;6.320;2023-03-23T02:09:34;100051.47;;;11.89
58102;BMP280;52034;51.926;6.320;2023-03-23T02:10:35;100044.44;;;11.86
58102;BMP280;52034;51.926;6.320;2023-03-23T02:11:36;100054.94;;;11.86
58102;BMP280;52034;51.926;6.320;2023-03-23T02:12:37;100068.34;;;11.89
58102;BMP280;52034;51.926;6.320;2023-03-23T02:13:38;100062.00;;;11.87
58102;BMP280;52034;51.926;6.320;2023-03-23T02:14:38;100069.75;;;11.86
58102;BMP280;52034;51.926;6.320;2023-03-23T02:17:12;100070.50;;;11.91
58102;BMP280;52034;51.926;6.320;2023-03-23T02:20:19;100066.31;;;11.92
58102;BMP280;52034;51.926;6.320;2023-03-23T02:22:16;100064.13;;;11.86
58102;BMP280;52034;51.926;6.320;2023-03-23T02:24:28;100072.00;;;11.96
58102;BMP280;52034;51.926;6.320;2023-03-23T02:26:54;100049.38;;;11.90
58102;BMP280;52034;51.926;6.320;2023-03-23T02:30:39;100042.50;;;11.95
58102;BMP280;52034;51.926;6.320;2023-03-23T02:31:52;100052.97;;;11.92
58102;BMP280;52034;51.926;6.320;2023-03-23T02:34:37;100034.72;;;11.95
58102;BMP280;52034;51.926;6.320;2023-03-23T02:35:43;100040.34;;;11.95
58102;BMP280;52034;51.926;6.320;2023-03-23T02:36:51;100047.44;;;11.98
58102;BMP280;52034;51.926;6.320;2023-03-23T02:38:12;100036.88;;;11.95
58102;BMP280;52034;51.926;6.320;2023-03-23T02:39:26;100040.41;;;11.97
58102;BMP280;52034;51.926;6.320;2023-03-23T02:40:38;100038.97;;;11.96
58102;BMP280;52034;51.926;6.320;2023-03-23T02:41:43;100033.31;;;11.94
58102;BMP280;52034;51.926;6.320;2023-03-23T02:42:48;100037.66;;;11.99
58102;BMP280;52034;51.926;6.320;2023-03-23T02:43:50;100039.06;;;12.00
58102;BMP280;52034;51.926;6.320;2023-03-23T02:44:52;100025.66;;;11.99
58102;BMP280;52034;51.926;6.320;2023-03-23T02:45:54;100032.78;;;12.02
58102;BMP280;52034;51.926;6.320;2023-03-23T02:46:57;100023.59;;;11.99
58102;BMP280;52034;51.926;6.320;2023-03-23T02:47:58;100033.47;;;12.02
58102;BMP280;52034;51.926;6.320;2023-03-23T02:49:01;100024.91;;;11.96
58102;BMP280;52034;51.926;6.320;2023-03-23T02:50:03;100025.78;;;12.05
58102;BMP280;52034;51.926;6.320;2023-03-23T02:51:06;100023.63;;;12.03
58102;BMP280;52034;51.926;6.320;2023-03-23T02:52:11;100025.03;;;12.02
58102;BMP280;52034;51.926;6.320;2023-03-23T02:53:18;100019.31;;;11.98
58102;BMP280;52034;51.926;6.320;2023-03-23T02:54:20;100023.63;;;12.01
58102;BMP280;52034;51.926;6.320;2023-03-23T02:55:22;100021.38;;;11.96
58102;BMP280;52034;51.926;6.320;2023-03-23T02:56:26;100036.31;;;12.04
58102;BMP280;52034;51.926;6.320;2023-03-23T02:57:28;100038.47;;;12.06
58102;BMP280;52034;51.926;6.320;2023-03-23T02:58:31;100044.09;;;12.06
58102;BMP280;52034;51.926;6.320;2023-03-23T02:59:32;100044.88;;;12.10
58102;BMP280;52034;51.926;6.320;2023-03-23T03:00:32;100034.22;;;12.05
58102;BMP280;52034;51.926;6.320;2023-03-23T03:02:35;100036.47;;;12.12
58102;BMP280;52034;51.926;6.320;2023-03-23T03:03:36;100034.38;;;12.13
58102;BMP280;52034;51.926;6.320;2023-03-23T03:04:38;100031.50;;;12.09
58102;BMP280;52034;51.926;6.320;2023-03-23T03:06:10;100035.09;;;12.13
58102;BMP280;52034;51.926;6.320;2023-03-23T03:07:26;100042.13;;;12.14
58102;BMP280;52034;51.926;6.320;2023-03-23T03:08:42;100032.28;;;12.13
58102;BMP280;52034;51.926;6.320;2023-03-23T03:09:52;100029.38;;;12.09
58102;BMP280;52034;51.926;6.320;2023-03-23T03:11:06;100023.75;;;12.09
58102;BMP280;52034;51.926;6.320;2023-03-23T03:12:30;100024.44;;;12.10
58102;BMP280;52034;51.926;6.320;2023-03-23T03:13:46;100036.50;;;12.14
58102;BMP280;52034;51.926;6.320;2023-03-23T03:14:59;100036.44;;;12.10
58102;BMP280;52034;51.926;6.320;2023-03-23T03:17:30;100017.44;;;12.09
58102;BMP280;52034;51.926;6.320;2023-03-23T03:18:32;100037.25;;;12.15
58102;BMP280;52034;51.926;6.320;2023-03-23T03:19:37;100034.44;;;12.15
58102;BMP280;52034;51.926;6.320;2023-03-23T03:20:44;100021.03;;;12.13
58102;BMP280;52034;51.926;6.320;2023-03-23T03:21:48;100026.53;;;12.07
58102;BMP280;52034;51.926;6.320;2023-03-23T03:22:55;100032.94;;;12.12
58102;BMP280;52034;51.926;6.320;2023-03-23T03:23:58;100029.47;;;12.13
58102;BMP280;52034;51.926;6.320;2023-03-23T03:25:01;100036.47;;;12.12
58102;BMP280;52034;51.926;6.320;2023-03-23T03:26:02;100040.06;;;12.17
58102;BMP280;52034;51.926;6.320;2023-03-23T03:27:17;100028.09;;;12.16
58102;BMP280;52034;51.926;6.320;2023-03-23T03:28:21;100028.06;;;12.14
58102;BMP280;52034;51.926;6.320;2023-03-23T03:29:32;100029.47;;;12.13
58102;BMP280;52034;51.926;6.320;2023-03-23T03:30:36;100028.09;;;12.16
58102;BMP280;52034;51.926;6.320;2023-03-23T03:31:39;100022.50;;;12.18
58102;BMP280;52034;51.926;6.320;2023-03-23T03:32:43;100033.09;;;12.20
58102;BMP280;52034;51.926;6.320;2023-03-23T03:33:46;100013.38;;;12.20
58102;BMP280;52034;51.926;6.320;2023-03-23T03:34:47;100019.00;;;12.18
58102;BMP280;52034;51.926;6.320;2023-03-23T03:35:51;100026.09;;;12.21
58102;BMP280;52034;51.926;6.320;2023-03-23T03:36:54;100035.25;;;12.23
58102;BMP280;52034;51.926;6.320;2023-03-23T03:38:05;100025.38;;;12.20
58102;BMP280;52034;51.926;6.320;2023-03-23T03:39:07;100032.44;;;12.23
58102;BMP280;52034;51.926;6.320;2023-03-23T03:40:13;100021.19;;;12.23
58102;BMP280;52034;51.926;6.320;2023-03-23T03:41:15;100028.19;;;12.20
58102;BMP280;52034;51.926;6.320;2023-03-23T03:42:15;100011.22;;;12.16
58102;BMP280;52034;51.926;6.320;2023-03-23T03:43:16;100026.66;;;12.13
58102;BMP280;52034;51.926;6.320;2023-03-23T03:44:16;100028.06;;;12.14
58102;BMP280;52034;51.926;6.320;2023-03-23T03:45:18;100020.31;;;12.13
58102;BMP280;52034;51.926;6.320;2023-03-23T03:46:19;100027.34;;;12.14
58102;BMP280;52034;51.926;6.320;2023-03-23T03:47:19;100022.34;;;12.10
58102;BMP280;52034;51.926;6.320;2023-03-23T03:48:20;100028.75;;;12.13
58102;BMP280;52034;51.926;6.320;2023-03-23T03:49:21;100025.25;;;12.14
58102;BMP280;52034;51.926;6.320;2023-03-23T03:50:22;100021.72;;;12.14
58102;BMP280;52034;51.926;6.320;2023-03-23T03:51:25;100006.97;;;12.13
58102;BMP280;52034;51.926;6.320;2023-03-23T03:52:27;100008.94;;;12.07
58102;BMP280;52034;51.926;6.320;2023-03-23T03:53:29;100022.44;;;12.14
58102;BMP280;52034;51.926;6.320;2023-03-23T03:54:30;100008.31;;;12.12
58102;BMP280;52034;51.926;6.320;2023-03-23T03:55:32;100014.72;;;12.15
58102;BMP280;52034;51.926;6.320;2023-03-23T03:56:35;100011.84;;;12.13
58102;BMP280;52034;51.926;6.320;2023-03-23T03:57:51;100025.91;;;12.11
58102;BMP280;52034;51.926;6.320;2023-03-23T03:59:15;100023.16;;;12.15
58102;BMP280;52034;51.926;6.320;2023-03-23T04:00:38;100021.09;;;12.17
58102;BMP280;52034;51.926;6.320;2023-03-23T04:01:39;100016.09;;;12.14
58102;BMP280;52034;51.926;6.320;2023-03-23T04:02:45;100011.91;;;12.17
58102;BMP280;52034;51.926;6.320;2023-03-23T04:03:54;100005.63;;;12.18
58102;BMP280;52034;51.926;6.320;2023-03-23T04:05:02;100021.16;;;12.21
58102;BMP280;52034;51.926;6.320;2023-03-23T04:06:05;100007.81;;;12.22
58102;BMP280;52034;51.926;6.320;2023-03-23T04:07:07;100012.69;;;12.19
58102;BMP280;52034;51.926;6.320;2023-03-23T04:08:12;100016.19;;;12.20
58102;BMP280;52034;51.926;6.320;2023-03-23T04:09:12;100014.13;;;12.20
58102;BMP280;52034;51.926;6.320;2023-03-23T04:10:13;100012.75;;;12.23
58102;BMP280;52034;51.926;6.320;2023-03-23T04:11:16;100009.91;;;12.21
58102;BMP280;52034;51.926;6.320;2023-03-23T04:12:16;100000.72;;;12.19
58102;BMP280;52034;51.926;6.320;2023-03-23T04:13:31;99999.38;;;12.22
58102;BMP280;52034;51.926;6.320;2023-03-23T04:14:37;100002.91;;;12.22
58102;BMP280;52034;51.926;6.320;2023-03-23T04:15:38;100013.44;;;12.22
58102;BMP280;52034;51.926;6.320;2023-03-23T04:16:39;100008.59;;;12.26
58102;BMP280;52034;51.926;6.320;2023-03-23T04:17:40;100016.41;;;12.32
58102;BMP280;52034;51.926;6.320;2023-03-23T04:18:42;100019.22;;;12.32
58102;BMP280;52034;51.926;6.320;2023-03-23T04:19:43;100015.66;;;12.27
58102;BMP280;52034;51.926;6.320;2023-03-23T04:20:47;100018.50;;;12.31
58102;BMP280;52034;51.926;6.320;2023-03-23T04:21:49;100030.53;;;12.34
58102;BMP280;52034;51.926;6.320;2023-03-23T04:22:51;100034.78;;;12.35
58102;BMP280;52034;51.926;6.320;2023-03-23T04:23:53;100037.59;;;12.35
58102;BMP280;52034;51.926;6.320;2023-03-23T04:24:53;100034.13;;;12.36
58102;BMP280;52034;51.926;6.320;2023-03-23T04:25:54;100032.63;;;12.33
58102;BMP280;52034;51.926;6.320;2023-03-23T04:27:01;100018.50;;;12.29
58102;BMP280;52034;51.926;6.320;2023-03-23T04:28:03;100024.19;;;12.33
58102;BMP280;52034;51.926;6.320;2023-03-23T04:29:08;100039.75;;;12.36
58102;BMP280;52034;51.926;6.320;2023-03-23T04:30:10;100036.88;;;12.34
58102;BMP280;52034;51.926;6.320;2023-03-23T04:31:12;100027.63;;;12.28
58102;BMP280;52034;51.926;6.320;2023-03-23T04:32:18;100032.47;;;12.25
58102;BMP280;52034;51.926;6.320;2023-03-23T04:33:26;100037.53;;;12.31
58102;BMP280;52034;51.926;6.320;2023-03-23T04:34:27;100033.25;;;12.28
58102;BMP280;52034;51.926;6.320;2023-03-23T04:35:28;100048.75;;;12.29
58102;BMP280;52034;51.926;6.320;2023-03-23T04:36:49;100048.03;;;12.30
58102;BMP280;52034;51.926;6.320;2023-03-23T04:37:55;100045.22;;;12.30
58102;BMP280;52034;51.926;6.320;2023-03-23T04:38:56;100038.06;;;12.23
58102;BMP280;52034;51.926;6.320;2023-03-23T04:39:58;100032.53;;;12.27
58102;BMP280;52034;51.926;6.320;2023-03-23T04:41:06;100036.06;;;12.28
58102;BMP280;52034;51.926;6.320;2023-03-23T04:42:30;100031.06;;;12.24
58102;BMP280;52034;51.926;6.320;2023-03-23T04:43:56;100040.91;;;12.25
58102;BMP280;52034;51.926;6.320;2023-03-23T04:45:05;100048.69;;;12.27
58102;BMP280;52034;51.926;6.320;2023-03-23T04:46:10;100038.88;;;12.28
58102;BMP280;52034;51.926;6.320;2023-03-23T04:47:11;100041.63;;;12.26
58102;BMP280;52034;51.926;6.320;2023-03-23T04:48:18;100043.69;;;12.23
58102;BMP280;52034;51.926;6.320;2023-03-23T04:49:31;100040.91;;;12.25
58102;BMP280;52034;51.926;6.320;2023-03-23T04:50:44;100043.03;;;12.25
58102;BMP280;52034;51.926;6.320;2023-03-23T04:51:54;100034.69;;;12.29
58102;BMP280;52034;51.926;6.320;2023-03-23T04:53:05;100039.59;;;12.30
58102;BMP280;52034;51.926;6.320;2023-03-23T04:54:06;100046.66;;;12.29
58102;BMP280;52034;51.926;6.320;2023-03-23T04:55:08;100045.13;;;12.22
58102;BMP280;52034;51.926;6.320;2023-03-23T04:56:10;100043.69;;;12.23
58102;BMP280;52034;51.926;6.320;2023-03-23T04:57:17;100046.50;;;12.23
58102;BMP280;52034;51.926;6.320;2023-03-23T04:58:27;100042.31;;;12.22
58102;BMP280;52034;51.926;6.320;2023-03-23T04:59:38;100043.69;;;12.23
58102;BMP280;52034;51.926;6.320;2023-03-23T05:00:43;100044.41;;;12.22
58102;BMP280;52034;51.926;6.320;2023-03-23T05:01:49;100056.38;;;12.24
58102;BMP280;52034;51.926;6.320;2023-03-23T05:02:52;100053.63;;;12.26
58102;BMP280;52034;51.926;6.320;2023-03-23T05:03:55;100050.75;;;12.24
58102;BMP280;52034;51.926;6.320;2023-03-23T05:04:56;100059.94;;;12.27
58102;BMP280;52034;51.926;6.320;2023-03-23T05:06:02;100045.13;;;12.24
58102;BMP280;52034;51.926;6.320;2023-03-23T05:07:03;100048.03;;;12.30
58102;BMP280;52034;51.926;6.320;2023-03-23T05:08:06;100052.28;;;12.29
58102;BMP280;52034;51.926;6.320;2023-03-23T05:09:11;100061.44;;;12.32
58102;BMP280;52034;51.926;6.320;2023-03-23T05:10:12;100062.13;;;12.30
58102;BMP280;52034;51.926;6.320;2023-03-23T05:11:13;100056.50;;;12.30
58102;BMP280;52034;51.926;6.320;2023-03-23T05:12:16;100061.50;;;12.34
58102;BMP280;52034;51.926;6.320;2023-03-23T05:13:28;100073.53;;;12.36
58102;BMP280;52034;51.926;6.320;2023-03-23T05:14:31;100050.13;;;12.30
58102;BMP280;52034;51.926;6.320;2023-03-23T05:15:43;100065.75;;;12.35
58102;BMP280;52034;51.926;6.320;2023-03-23T05:16:44;100067.84;;;12.34
58102;BMP280;52034;51.926;6.320;2023-03-23T05:17:51;100071.31;;;12.33
58102;BMP280;52034;51.926;6.320;2023-03-23T05:18:53;100067.81;;;12.32
58102;BMP280;52034;51.926;6.320;2023-03-23T05:19:57;100055.72;;;12.26
58102;BMP280;52034;51.926;6.320;2023-03-23T05:21:12;100069.84;;;12.30
58102;BMP280;52034;51.926;6.320;2023-03-23T05:22:16;100070.66;;;12.34
58102;BMP280;52034;51.926;6.320;2023-03-23T05:23:21;100070.56;;;12.30
58102;BMP280;52034;51.926;6.320;2023-03-23T05:24:30;100074.84;;;12.33
58102;BMP280;52034;51.926;6.320;2023-03-23T05:25:35;100060.72;;;12.29
58102;BMP280;52034;51.926;6.320;2023-03-23T05:26:52;100060.63;;;12.25
58102;BMP280;52034;51.926;6.320;2023-03-23T05:27:58;100063.47;;;12.27
58102;BMP280;52034;51.926;6.320;2023-03-23T05:29:11;100069.16;;;12.31
58102;BMP280;52034;51.926;6.320;2023-03-23T05:30:23;100064.16;;;12.26
58102;BMP280;52034;51.926;6.320;2023-03-23T05:31:23;100062.00;;;12.24
58102;BMP280;52034;51.926;6.320;2023-03-23T05:32:25;100062.75;;;12.27
58102;BMP280;52034;51.926;6.320;2023-03-23T05:33:32;100066.97;;;12.26
58102;BMP280;52034;51.926;6.320;2023-03-23T05:34:43;100066.25;;;12.25
58102;BMP280;52034;51.926;6.320;2023-03-23T05:35:48;100064.22;;;12.28
58102;BMP280;52034;51.926;6.320;2023-03-23T05:36:50;100058.53;;;12.26
58102;BMP280;52034;51.926;6.320;2023-03-23T05:38:07;100059.25;;;12.26
58102;BMP280;52034;51.926;6.320;2023-03-23T05:39:10;100062.84;;;12.31
58102;BMP280;52034;51.926;6.320;2023-03-23T05:40:30;100073.38;;;12.30
58102;BMP280;52034;51.926;6.320;2023-03-23T05:41:35;100074.75;;;12.27
58102;BMP280;52034;51.926;6.320;2023-03-23T05:42:36;100072.66;;;12.28
58102;BMP280;52034;51.926;6.320;2023-03-23T05:43:45;100074.06;;;12.29
58102;BMP280;52034;51.926;6.320;2023-03-23T05:44:55;100078.22;;;12.26
58102;BMP280;52034;51.926;6.320;2023-03-23T05:45:55;100071.94;;;12.27
58102;BMP280;52034;51.926;6.320;2023-03-23T05:46:56;100069.13;;;12.27
58102;BMP280;52034;51.926;6.320;2023-03-23T05:47:56;100067.63;;;12.24
58102;BMP280;52034;51.926;6.320;2023-03-23T05:49:00;100072.59;;;12.26
58102;BMP280;52034;51.926;6.320;2023-03-23T05:50:08;100066.94;;;12.24
58102;BMP280;52034;51.926;6.320;2023-03-23T05:51:12;100070.44;;;12.22
58102;BMP280;52034;51.926;6.320;2023-03-23T05:52:16;100067.63;;;12.24
58102;BMP280;52034;51.926;6.320;2023-03-23T05:53:17;100072.59;;;12.26
58102;BMP280;52034;51.926;6.320;2023-03-23T05:54:17;100074.00;;;12.25
58102;BMP280;52034;51.926;6.320;2023-03-23T05:55:20;100074.66;;;12.23
58102;BMP280;52034;51.926;6.320;2023-03-23T05:56:28;100080.28;;;12.23
58102;BMP280;52034;51.926;6.320;2023-03-23T05:57:59;100077.50;;;12.25
58102;BMP280;52034;51.926;6.320;2023-03-23T05:59:05;100073.25;;;12.22
58102;BMP280;52034;51.926;6.320;2023-03-23T06:00:09;100069.06;;;12.25
58102;BMP280;52034;51.926;6.320;2023-03-23T06:01:15;100069.16;;;12.29
58102;BMP280;52034;51.926;6.320;2023-03-23T06:02:16;100075.53;;;12.32
58102;BMP280;52034;51.926;6.320;2023-03-23T06:03:16;100074.75;;;12.27
58102;BMP280;52034;51.926;6.320;2023-03-23T06:04:23;100076.25;;;12.32
58102;BMP280;52034;51.926;6.320;2023-03-23T06:05:50;100068.38;;;12.27
58102;BMP280;52034;51.926;6.320;2023-03-23T06:06:53;100073.31;;;12.26
58102;BMP280;52034;51.926;6.320;2023-03-23T06:07:54;100070.44;;;12.24
58102;BMP280;52034;51.926;6.320;2023-03-23T06:08:56;100071.88;;;12.25
58102;BMP280;52034;51.926;6.320;2023-03-23T06:10:10;100074.03;;;12.27
58102;BMP280;52034;51.926;6.320;2023-03-23T06:11:17;100078.94;;;12.26
58102;BMP280;52034;51.926;6.320;2023-03-23T06:12:28;100087.34;;;12.22
58102;BMP280;52034;51.926;6.320;2023-03-23T06:13:43;100079.59;;;12.23
58102;BMP280;52034;51.926;6.320;2023-03-23T06:14:44;100082.44;;;12.25
58102;BMP280;52034;51.926;6.320;2023-03-23T06:15:47;100068.31;;;12.21
58102;BMP280;52034;51.926;6.320;2023-03-23T06:16:54;100071.13;;;12.21
58102;BMP280;52034;51.926;6.320;2023-03-23T06:17:58;100077.41;;;12.19
58102;BMP280;52034;51.926;6.320;2023-03-23T06:19:03;100081.00;;;12.24
58102;BMP280;52034;51.926;6.320;2023-03-23T06:20:08;100083.09;;;12.23
58102;BMP280;52034;51.926;6.320;2023-03-23T06:21:11;100082.41;;;12.23
58102;BMP280;52034;51.926;6.320;2023-03-23T06:22:39;100085.91;;;12.23